Time;durP1;ratioP1;P1;durP2;ratioP2;P2;SDS_P1;SDS_P2;PMS_P1;PMS_P2;Temp;Humidity;BMP_temperature;BMP_pressure;BME280_temperature;BME280_humidity;BME280_pressure;Samples;Min_cycle;Max_cycle;Signal;HPM_P1;HPM_P2
2022/07/16 00:01:22;;;;;;;0.60;0.60;;;10.60;99.90;;;;;;5033812;28;20194;-68
2022/07/16 00:01:48;;;;;;;0.63;0.63;;;10.50;99.90;;;;;;5051583;28;20202;-67
2022/07/16 00:04:14;;;;;;;0.60;0.60;;;10.40;99.90;;;;;;5051792;28;20208;-67
2022/07/16 00:06:39;;;;;;;0.60;0.60;;;10.30;99.90;;;;;;5030278;28;20347;-67
2022/07/16 00:09:05;;;;;;;0.60;0.60;;;10.30;99.90;;;;;;5013928;28;20212;-69
2022/07/16 00:11:31;;;;;;;0.60;0.60;;;10.30;99.90;;;;;;5031521;28;20198;-68
2022/07/16 00:13:57;;;;;;;0.60;0.60;;;10.30;99.90;;;;;;5031703;28;20205;-68
2022/07/16 00:16:22;;;;;;;0.60;0.60;;;10.30;99.90;;;;;;5031777;28;20186;-68
2022/07/16 00:19:30;;;;;;;0.60;0.60;;;10.20;99.90;;;;;;5031555;28;20222;-68
2022/07/16 00:21:37;;;;;;;0.50;0.50;;;10.20;99.90;;;;;;5036102;28;20224;-68
2022/07/16 00:24:03;;;;;;;0.60;0.60;;;10.20;99.90;;;;;;5051269;28;20217;-67
2022/07/16 00:26:30;;;;;;;0.60;0.60;;;10.20;99.90;;;;;;5051000;28;20596;-67
2022/07/16 00:28:55;;;;;;;0.50;0.50;;;10.20;99.90;;;;;;5051542;28;20209;-67
2022/07/16 00:31:21;;;;;;;0.60;0.60;;;10.10;99.90;;;;;;5051099;28;20189;-69
2022/07/16 00:33:47;;;;;;;0.50;0.50;;;10.10;99.90;;;;;;5051419;28;20198;-68
2022/07/16 00:36:12;;;;;;;0.60;0.60;;;10.00;99.90;;;;;;5051389;28;20189;-67
2022/07/16 00:38:38;;;;;;;0.60;0.60;;;10.00;99.90;;;;;;5051079;28;20263;-67
2022/07/16 00:41:04;;;;;;;0.50;0.50;;;10.10;99.90;;;;;;5051177;28;20193;-69
2022/07/16 00:43:30;;;;;;;0.60;0.60;;;10.10;99.90;;;;;;5033263;28;20239;-69
2022/07/16 00:45:55;;;;;;;0.65;0.65;;;10.10;99.90;;;;;;5033571;28;20208;-68
2022/07/16 00:48:21;;;;;;;0.60;0.60;;;10.10;99.90;;;;;;5051141;28;20245;-68
2022/07/16 00:50:47;;;;;;;0.60;0.60;;;10.10;99.90;;;;;;5051852;28;20189;-68
2022/07/16 00:53:12;;;;;;;0.60;0.60;;;10.10;99.90;;;;;;5033451;28;20284;-68
2022/07/16 00:55:38;;;;;;;0.60;0.60;;;10.10;99.90;;;;;;5042514;28;20259;-68
2022/07/16 00:58:04;;;;;;;0.50;0.50;;;10.00;99.90;;;;;;5030955;28;20194;-67
2022/07/16 01:00:30;;;;;;;0.60;0.60;;;9.90;99.90;;;;;;5034479;28;20190;-68
2022/07/16 01:02:57;;;;;;;0.52;0.52;;;9.80;99.90;;;;;;5035003;28;20484;-68
2022/07/16 01:05:24;;;;;;;0.50;0.50;;;9.70;99.90;;;;;;5036857;28;20194;-67
2022/07/16 01:07:49;;;;;;;0.60;0.60;;;9.60;99.90;;;;;;5037505;28;20296;-67
2022/07/16 01:10:18;;;;;;;0.63;0.63;;;9.60;99.90;;;;;;5055159;28;20213;-68
2022/07/16 01:12:45;;;;;;;0.90;0.90;;;9.50;99.90;;;;;;5054927;28;20185;-68
2022/07/16 01:15:11;;;;;;;0.60;0.60;;;9.50;99.90;;;;;;5054950;28;20254;-68
2022/07/16 01:17:37;;;;;;;0.80;0.80;;;9.40;99.90;;;;;;5045864;28;20209;-69
2022/07/16 01:20:04;;;;;;;0.60;0.60;;;9.30;99.90;;;;;;5034889;28;20190;-67
2022/07/16 01:22:31;;;;;;;0.60;0.60;;;9.40;99.90;;;;;;5034956;28;20273;-67
2022/07/16 01:24:57;;;;;;;0.57;0.57;;;9.20;99.90;;;;;;5034800;28;20817;-67
2022/07/16 01:27:22;;;;;;;0.55;0.55;;;9.10;99.90;;;;;;5034596;28;20248;-67
2022/07/16 01:29:48;;;;;;;0.57;0.57;;;9.00;99.90;;;;;;5034875;28;20551;-66
2022/07/16 01:32:14;;;;;;;0.60;0.60;;;9.00;99.90;;;;;;5034760;28;20190;-67
2022/07/16 01:34:40;;;;;;;0.60;0.60;;;8.90;99.90;;;;;;5034804;28;20179;-67
2022/07/16 01:37:07;;;;;;;0.60;0.60;;;8.80;99.90;;;;;;5034650;28;20201;-67
2022/07/16 01:39:35;;;;;;;0.60;0.60;;;8.80;99.90;;;;;;5016413;28;20190;-66
2022/07/16 01:42:04;;;;;;;0.70;0.70;;;8.70;99.90;;;;;;5016147;28;20343;-66
2022/07/16 01:44:32;;;;;;;0.60;0.60;;;8.70;99.90;;;;;;5034282;28;20574;-66
2022/07/16 01:46:58;;;;;;;0.60;0.60;;;8.70;99.90;;;;;;5034483;28;20197;-66
2022/07/16 01:49:29;;;;;;;0.60;0.60;;;8.80;99.90;;;;;;5034278;28;20211;-66
2022/07/16 01:51:55;;;;;;;0.60;0.60;;;8.80;99.90;;;;;;5042959;28;20197;-67
2022/07/16 01:54:21;;;;;;;0.70;0.70;;;8.80;99.90;;;;;;5054417;28;20278;-66
2022/07/16 01:56:46;;;;;;;0.60;0.60;;;8.90;99.90;;;;;;5054278;28;20190;-66
2022/07/16 01:59:12;;;;;;;0.70;0.70;;;8.80;99.90;;;;;;5054130;28;20189;-67
2022/07/16 02:01:38;;;;;;;0.60;0.60;;;8.70;99.90;;;;;;5048458;28;20236;-66
2022/07/16 02:04:04;;;;;;;0.60;0.60;;;8.80;99.90;;;;;;5054540;28;20193;-67
2022/07/16 02:06:29;;;;;;;0.60;0.60;;;8.80;99.90;;;;;;5053919;28;20204;-67
2022/07/16 02:08:55;;;;;;;0.60;0.60;;;8.80;99.90;;;;;;5053886;28;20213;-66
2022/07/16 02:11:21;;;;;;;0.60;0.60;;;8.90;99.90;;;;;;5053134;28;20606;-67
2022/07/16 02:13:47;;;;;;;0.60;0.60;;;8.90;99.90;;;;;;5045775;28;20198;-67
2022/07/16 02:16:12;;;;;;;0.60;0.60;;;8.90;99.90;;;;;;5034029;28;20651;-67
2022/07/16 02:18:38;;;;;;;0.63;0.63;;;8.90;99.90;;;;;;5033982;28;20557;-67
2022/07/16 02:21:04;;;;;;;0.70;0.70;;;8.80;99.90;;;;;;5033796;28;20540;-67
2022/07/16 02:23:30;;;;;;;0.60;0.60;;;8.80;99.90;;;;;;5033073;28;20267;-67
2022/07/16 02:25:56;;;;;;;0.60;0.60;;;8.80;99.90;;;;;;5049179;28;20286;-67
2022/07/16 02:28:22;;;;;;;0.60;0.60;;;8.70;99.90;;;;;;5053515;28;20209;-66
2022/07/16 02:30:49;;;;;;;0.57;0.57;;;8.70;99.90;;;;;;5053766;28;20534;-66
2022/07/16 02:33:16;;;;;;;0.60;0.60;;;8.70;99.90;;;;;;5052146;28;20610;-67
2022/07/16 02:35:43;;;;;;;0.60;0.60;;;8.70;99.90;;;;;;5053451;28;20200;-67
2022/07/16 02:38:10;;;;;;;0.60;0.60;;;8.80;99.90;;;;;;5053304;28;20709;-67
2022/07/16 02:40:37;;;;;;;0.60;0.60;;;8.90;99.90;;;;;;5079087;28;20204;-67
2022/07/16 02:43:05;;;;;;;0.60;0.60;;;8.90;99.90;;;;;;5092137;28;20204;-67
2022/07/16 02:45:32;;;;;;;0.60;0.60;;;9.00;99.90;;;;;;5078545;28;20231;-67
2022/07/16 02:47:58;;;;;;;0.63;0.63;;;8.90;99.90;;;;;;5073319;28;20227;-67
2022/07/16 02:50:25;;;;;;;0.60;0.60;;;8.90;99.90;;;;;;5073566;28;20185;-67
2022/07/16 02:52:50;;;;;;;0.63;0.63;;;8.90;99.90;;;;;;5073414;28;20609;-67
2022/07/16 02:55:16;;;;;;;0.70;0.70;;;8.90;99.90;;;;;;5073238;28;20254;-67
2022/07/16 02:57:42;;;;;;;0.60;0.60;;;8.90;99.90;;;;;;5073224;28;20245;-67
2022/07/16 03:00:11;;;;;;;0.63;0.63;;;8.90;99.90;;;;;;5073047;28;20216;-67
2022/07/16 03:02:37;;;;;;;0.60;0.60;;;9.00;99.90;;;;;;5059453;28;20323;-67
2022/07/16 03:05:03;;;;;;;0.60;0.60;;;9.10;99.90;;;;;;5052539;28;20655;-67
2022/07/16 03:07:29;;;;;;;0.70;0.70;;;9.10;99.90;;;;;;5072400;28;20197;-67
2022/07/16 03:09:55;;;;;;;0.60;0.60;;;9.20;99.90;;;;;;5071356;28;20217;-67
2022/07/16 03:12:21;;;;;;;0.70;0.70;;;9.20;99.90;;;;;;5071476;28;20629;-67
2022/07/16 03:14:47;;;;;;;0.70;0.70;;;9.20;99.90;;;;;;5072860;28;20707;-68
2022/07/16 03:17:13;;;;;;;0.68;0.68;;;9.20;99.90;;;;;;5072693;28;20229;-67
2022/07/16 03:19:39;;;;;;;0.50;0.50;;;9.30;99.90;;;;;;5072557;28;20193;-67
2022/07/16 03:22:05;;;;;;;0.80;0.80;;;9.20;99.90;;;;;;5072485;28;20653;-67
2022/07/16 03:24:30;;;;;;;0.60;0.60;;;9.20;99.90;;;;;;5067144;28;20240;-66
2022/07/16 03:26:56;;;;;;;0.63;0.63;;;9.20;99.90;;;;;;5053031;28;20261;-67
2022/07/16 03:29:22;;;;;;;0.60;0.60;;;9.20;99.90;;;;;;5034321;28;20213;-67
2022/07/16 03:31:47;;;;;;;0.60;0.60;;;9.20;99.90;;;;;;5052557;28;20200;-69
2022/07/16 03:34:13;;;;;;;0.60;0.60;;;9.30;99.90;;;;;;5052547;28;20182;-68
2022/07/16 03:36:39;;;;;;;0.80;0.80;;;9.40;99.90;;;;;;5040773;28;20612;-68
2022/07/16 03:39:05;;;;;;;0.50;0.50;;;9.50;99.90;;;;;;5032328;28;20225;-67
2022/07/16 03:41:32;;;;;;;0.60;0.60;;;9.60;99.90;;;;;;5043972;28;20202;-67
2022/07/16 03:43:59;;;;;;;0.60;0.60;;;9.60;99.90;;;;;;5051708;28;20673;-67
2022/07/16 03:46:25;;;;;;;0.50;0.50;;;9.60;99.90;;;;;;5052057;28;20197;-68
2022/07/16 03:48:51;;;;;;;0.70;0.70;;;9.70;99.90;;;;;;5034254;28;20279;-67
2022/07/16 03:51:16;;;;;;;0.60;0.60;;;9.70;99.90;;;;;;5052059;28;20198;-67
2022/07/16 03:53:42;;;;;;;0.50;0.50;;;9.70;99.90;;;;;;5052004;28;20193;-68
2022/07/16 03:56:08;;;;;;;0.50;0.50;;;9.80;99.90;;;;;;5052151;28;20272;-68
2022/07/16 03:58:34;;;;;;;0.60;0.60;;;9.90;99.90;;;;;;5034044;28;20707;-68
2022/07/16 04:01:00;;;;;;;0.57;0.57;;;9.90;99.90;;;;;;5052236;28;20189;-68
2022/07/16 04:03:26;;;;;;;0.60;0.60;;;10.00;99.90;;;;;;5052039;28;20683;-69
2022/07/16 04:05:52;;;;;;;0.52;0.52;;;10.10;99.90;;;;;;5050181;28;20193;-68
2022/07/16 04:08:18;;;;;;;0.50;0.50;;;10.30;99.90;;;;;;5051503;28;20210;-68
2022/07/16 04:10:43;;;;;;;0.60;0.60;;;10.40;99.90;;;;;;5033881;28;20194;-68
2022/07/16 04:13:09;;;;;;;0.50;0.50;;;10.50;99.90;;;;;;5052034;28;20208;-68
2022/07/16 04:15:35;;;;;;;0.60;0.60;;;10.60;99.90;;;;;;5052312;28;20324;-68
2022/07/16 04:18:01;;;;;;;0.57;0.57;;;10.70;99.90;;;;;;5034365;28;20255;-69
2022/07/16 04:20:27;;;;;;;0.60;0.60;;;10.80;99.90;;;;;;5051888;28;20564;-68
2022/07/16 04:22:53;;;;;;;0.60;0.60;;;10.90;99.90;;;;;;5052073;28;20185;-68
2022/07/16 04:25:19;;;;;;;0.60;0.60;;;10.80;99.90;;;;;;5052184;28;20233;-68
2022/07/16 04:27:45;;;;;;;0.55;0.55;;;10.80;99.90;;;;;;5034680;28;20576;-68
2022/07/16 04:30:12;;;;;;;0.50;0.50;;;10.80;99.90;;;;;;5052144;28;20194;-68
2022/07/16 04:32:39;;;;;;;0.50;0.50;;;10.80;99.90;;;;;;5043137;28;20234;-68
2022/07/16 04:35:06;;;;;;;0.60;0.60;;;10.90;99.90;;;;;;5016277;28;20194;-68
2022/07/16 04:37:32;;;;;;;0.70;0.70;;;11.00;99.90;;;;;;5026934;28;20201;-68
2022/07/16 04:39:58;;;;;;;0.52;0.52;;;10.90;99.90;;;;;;5055562;28;20200;-68
2022/07/16 04:42:24;;;;;;;0.98;0.90;;;11.00;99.90;;;;;;5055382;28;20286;-68
2022/07/16 04:44:49;;;;;;;0.60;0.60;;;11.00;99.90;;;;;;5055727;28;20197;-68
2022/07/16 04:47:17;;;;;;;0.60;0.60;;;11.00;99.90;;;;;;5055505;28;20429;-68
2022/07/16 04:49:43;;;;;;;0.70;0.70;;;11.00;99.90;;;;;;5055765;28;20201;-68
2022/07/16 04:52:09;;;;;;;0.50;0.50;;;11.00;99.90;;;;;;5055642;28;20719;-68
2022/07/16 04:54:34;;;;;;;0.55;0.55;;;11.00;99.90;;;;;;5055292;28;20193;-69
2022/07/16 04:57:00;;;;;;;0.52;0.52;;;11.00;99.90;;;;;;5055502;28;20174;-68
2022/07/16 04:59:26;;;;;;;0.63;0.63;;;11.20;99.90;;;;;;5055288;28;20193;-68
2022/07/16 05:01:52;;;;;;;0.57;0.57;;;11.20;99.90;;;;;;5052490;28;20280;-67
2022/07/16 05:04:18;;;;;;;0.40;0.40;;;11.20;99.90;;;;;;5034803;28;20302;-68
2022/07/16 05:06:44;;;;;;;0.60;0.60;;;11.30;99.90;;;;;;5048274;28;20213;-68
2022/07/16 05:09:10;;;;;;;0.55;0.55;;;11.40;99.90;;;;;;5055278;28;20213;-68
2022/07/16 05:11:35;;;;;;;0.60;0.60;;;11.40;99.90;;;;;;5054954;28;20538;-69
2022/07/16 05:14:01;;;;;;;0.55;0.55;;;11.40;99.90;;;;;;5055234;28;20214;-68
2022/07/16 05:16:27;;;;;;;0.60;0.60;;;11.40;99.90;;;;;;5054982;28;20189;-68
2022/07/16 05:18:53;;;;;;;0.60;0.60;;;11.40;99.90;;;;;;5055176;28;20197;-68
2022/07/16 05:21:18;;;;;;;1.48;1.00;;;11.30;99.90;;;;;;5054946;28;20312;-68
2022/07/16 05:23:44;;;;;;;0.57;0.57;;;11.30;99.90;;;;;;5055062;28;20318;-68
2022/07/16 05:26:10;;;;;;;0.70;0.70;;;11.30;99.90;;;;;;5070153;28;20592;-68
2022/07/16 05:28:36;;;;;;;0.60;0.60;;;11.40;99.90;;;;;;5081401;28;20577;-68
2022/07/16 05:31:02;;;;;;;0.50;0.50;;;11.40;99.90;;;;;;5095159;28;20220;-68
2022/07/16 05:33:28;;;;;;;0.50;0.50;;;11.40;99.90;;;;;;5081270;28;20194;-68
2022/07/16 05:35:54;;;;;;;0.57;0.57;;;11.40;99.90;;;;;;5055061;28;20261;-68
2022/07/16 05:38:19;;;;;;;0.60;0.60;;;11.30;99.90;;;;;;5073212;28;20563;-68
2022/07/16 05:40:45;;;;;;;0.55;0.55;;;11.30;99.90;;;;;;5074455;28;20204;-68
2022/07/16 05:43:11;;;;;;;1.23;1.13;;;11.50;99.90;;;;;;5075193;28;20279;-68
2022/07/16 05:45:37;;;;;;;0.60;0.60;;;11.70;99.90;;;;;;5073702;28;20189;-68
2022/07/16 05:48:03;;;;;;;0.50;0.50;;;12.00;99.90;;;;;;5074196;28;20270;-68
2022/07/16 05:50:29;;;;;;;0.50;0.50;;;12.10;99.90;;;;;;5074558;28;20211;-68
2022/07/16 05:52:55;;;;;;;0.57;0.57;;;12.10;99.90;;;;;;5073351;28;20201;-68
2022/07/16 05:55:21;;;;;;;0.60;0.60;;;12.10;99.90;;;;;;5074159;28;20189;-68
2022/07/16 05:57:46;;;;;;;0.50;0.50;;;12.10;99.90;;;;;;5074447;28;20208;-68
2022/07/16 06:00:13;;;;;;;0.88;0.85;;;12.00;99.90;;;;;;5074145;28;20231;-69
2022/07/16 06:02:40;;;;;;;0.40;0.40;;;11.90;99.90;;;;;;5072571;28;20216;-68
2022/07/16 06:05:07;;;;;;;0.60;0.60;;;11.80;99.90;;;;;;5073960;28;20675;-68
2022/07/16 06:07:32;;;;;;;0.50;0.50;;;11.80;99.90;;;;;;5068941;28;20209;-68
2022/07/16 06:09:58;;;;;;;0.50;0.50;;;11.80;99.90;;;;;;5054247;28;20726;-68
2022/07/16 06:12:24;;;;;;;0.50;0.50;;;11.70;99.90;;;;;;5053755;28;20250;-68
2022/07/16 06:14:49;;;;;;;0.50;0.50;;;11.90;99.90;;;;;;5052672;28;20200;-70
2022/07/16 06:17:15;;;;;;;0.50;0.50;;;12.20;99.90;;;;;;5054276;28;20197;-69
2022/07/16 06:19:42;;;;;;;0.57;0.57;;;12.50;99.90;;;;;;5053419;28;20673;-69
2022/07/16 06:22:09;;;;;;;0.40;0.40;;;13.10;99.90;;;;;;5054456;28;20585;-70
2022/07/16 06:24:34;;;;;;;0.50;0.50;;;13.70;99.90;;;;;;5052960;28;20213;-70
2022/07/16 06:27:00;;;;;;;0.40;0.40;;;14.40;99.90;;;;;;5053674;28;20208;-70
2022/07/16 06:29:26;;;;;;;0.50;0.50;;;14.80;99.90;;;;;;5048975;28;20202;-70
2022/07/16 06:31:51;;;;;;;0.40;0.40;;;15.10;99.90;;;;;;5016051;28;20198;-70
2022/07/16 06:34:17;;;;;;;0.40;0.40;;;15.20;99.90;;;;;;5033690;28;20194;-70
2022/07/16 06:36:43;;;;;;;0.30;0.30;;;15.30;99.90;;;;;;5015943;28;20202;-70
2022/07/16 06:39:08;;;;;;;0.40;0.40;;;15.30;99.90;;;;;;5033649;28;20222;-72
2022/07/16 06:41:37;;;;;;;0.30;0.30;;;15.50;99.90;;;;;;5033601;28;20474;-71
2022/07/16 06:44:04;;;;;;;0.55;0.55;;;15.40;99.90;;;;;;5033584;28;20269;-70
2022/07/16 06:46:30;;;;;;;0.40;0.40;;;15.10;99.90;;;;;;5033424;28;20687;-70
2022/07/16 06:48:55;;;;;;;0.40;0.40;;;15.10;99.90;;;;;;5033487;28;20297;-70
2022/07/16 06:51:21;;;;;;;0.40;0.40;;;15.10;99.90;;;;;;5033596;28;20281;-70
2022/07/16 06:53:47;;;;;;;0.40;0.40;;;15.40;99.90;;;;;;5033481;28;20179;-70
2022/07/16 06:56:13;;;;;;;0.30;0.30;;;15.40;99.90;;;;;;5050976;28;20254;-69
2022/07/16 06:58:39;;;;;;;0.35;0.35;;;15.20;99.90;;;;;;5034589;28;20213;-69
2022/07/16 07:01:05;;;;;;;0.30;0.30;;;15.50;99.90;;;;;;5052490;28;20322;-69
2022/07/16 07:03:31;;;;;;;0.40;0.40;;;15.40;99.90;;;;;;5052992;28;20198;-70
2022/07/16 07:05:57;;;;;;;0.30;0.30;;;15.20;99.90;;;;;;5053041;28;20193;-69
2022/07/16 07:08:22;;;;;;;0.40;0.40;;;15.40;99.90;;;;;;5034934;28;20251;-70
2022/07/16 07:10:48;;;;;;;0.35;0.35;;;15.20;99.90;;;;;;5053211;28;20182;-70
2022/07/16 07:13:14;;;;;;;0.40;0.40;;;15.00;99.90;;;;;;5035080;28;20193;-71
2022/07/16 07:15:41;;;;;;;0.50;0.50;;;15.20;99.90;;;;;;5052684;28;20196;-69
2022/07/16 07:18:07;;;;;;;2.17;0.52;;;15.20;99.90;;;;;;5053031;28;20221;-69
2022/07/16 07:20:33;;;;;;;0.40;0.40;;;15.40;99.90;;;;;;5052569;28;20229;-69
2022/07/16 07:22:58;;;;;;;0.40;0.40;;;15.70;99.90;;;;;;5034911;28;20209;-69
2022/07/16 07:25:24;;;;;;;0.28;0.28;;;16.20;99.90;;;;;;5050375;28;20240;-69
2022/07/16 07:27:50;;;;;;;0.38;0.38;;;16.40;99.90;;;;;;5032868;28;20202;-69
2022/07/16 07:30:16;;;;;;;0.45;0.45;;;16.20;99.90;;;;;;5032829;28;20259;-70
2022/07/16 07:32:41;;;;;;;0.30;0.30;;;16.20;99.90;;;;;;5014972;28;20174;-70
2022/07/16 07:35:07;;;;;;;0.30;0.30;;;16.00;99.90;;;;;;5032571;28;20200;-70
2022/07/16 07:37:34;;;;;;;0.50;0.50;;;16.00;99.90;;;;;;5032123;28;20197;-70
2022/07/16 07:40:01;;;;;;;0.50;0.50;;;15.70;99.90;;;;;;5032115;28;20248;-71
2022/07/16 07:42:27;;;;;;;0.30;0.30;;;15.90;99.90;;;;;;5014683;28;20480;-70
2022/07/16 07:44:53;;;;;;;0.38;0.38;;;16.00;99.90;;;;;;5032571;28;20194;-70
2022/07/16 07:47:18;;;;;;;0.30;0.30;;;16.20;99.90;;;;;;5032177;28;20205;-69
2022/07/16 07:49:44;;;;;;;0.30;0.30;;;16.50;99.90;;;;;;5032653;28;20194;-70
2022/07/16 07:52:10;;;;;;;0.30;0.30;;;16.60;99.90;;;;;;5032158;28;20195;-70
2022/07/16 07:54:36;;;;;;;0.32;0.32;;;16.40;99.90;;;;;;5032287;28;20224;-70
2022/07/16 07:57:01;;;;;;;0.40;0.40;;;16.40;99.90;;;;;;5032165;28;20217;-71
2022/07/16 07:59:27;;;;;;;0.35;0.35;;;16.20;99.90;;;;;;5031933;28;20646;-70
2022/07/16 08:01:53;;;;;;;0.38;0.38;;;16.00;99.90;;;;;;5031930;28;20197;-71
2022/07/16 08:04:18;;;;;;;0.40;0.40;;;15.80;99.90;;;;;;5031787;28;20204;-70
2022/07/16 08:06:44;;;;;;;0.30;0.30;;;15.80;99.90;;;;;;5045089;28;20197;-71
2022/07/16 08:09:10;;;;;;;0.30;0.30;;;16.10;99.90;;;;;;5033448;28;20245;-71
2022/07/16 08:11:35;;;;;;;0.40;0.40;;;16.30;99.90;;;;;;5051874;28;20198;-71
2022/07/16 08:14:01;;;;;;;0.38;0.38;;;16.30;99.90;;;;;;5052048;28;20193;-71
2022/07/16 08:16:27;;;;;;;0.60;0.60;;;16.50;99.90;;;;;;5051064;28;20189;-71
2022/07/16 08:18:53;;;;;;;0.30;0.30;;;16.40;99.90;;;;;;5051955;28;20216;-70
2022/07/16 08:21:19;;;;;;;0.30;0.30;;;16.30;99.90;;;;;;5051468;28;20189;-69
2022/07/16 08:26:28;;;;;;;0.30;0.30;;;16.00;99.90;;;;;;5031619;28;20738;-69
2022/07/16 08:28:55;;;;;;;0.30;0.30;;;16.40;99.90;;;;;;5031709;28;20214;-69
2022/07/16 08:31:20;;;;;;;0.57;0.57;;;17.10;99.90;;;;;;5031592;28;20194;-70
2022/07/16 08:33:46;;;;;;;0.30;0.30;;;17.20;99.90;;;;;;5031789;28;20607;-69
2022/07/16 08:36:12;;;;;;;0.30;0.30;;;17.60;99.90;;;;;;5014035;28;20205;-70
2022/07/16 08:38:38;;;;;;;0.20;0.20;;;17.60;99.90;;;;;;5031576;28;20335;-69
2022/07/16 08:41:04;;;;;;;0.30;0.30;;;17.80;99.90;;;;;;5031570;28;20216;-69
2022/07/16 08:43:30;;;;;;;0.30;0.30;;;17.50;99.90;;;;;;5013897;28;20205;-69
2022/07/16 08:45:56;;;;;;;0.30;0.30;;;17.10;99.90;;;;;;5031629;28;20723;-70
2022/07/16 08:48:24;;;;;;;0.40;0.40;;;17.00;99.90;;;;;;5028198;28;20205;-70
2022/07/16 08:50:53;;;;;;;0.20;0.20;;;17.30;99.90;;;;;;5051891;28;20197;-69
2022/07/16 08:53:22;;;;;;;0.50;0.50;;;17.40;99.90;;;;;;5051284;28;20205;-69
2022/07/16 08:55:52;;;;;;;0.30;0.30;;;17.30;99.90;;;;;;5051460;28;20229;-69
2022/07/16 08:58:18;;;;;;;0.30;0.30;;;17.50;99.90;;;;;;5033886;28;20225;-69
2022/07/16 09:00:45;;;;;;;0.30;0.30;;;17.60;99.90;;;;;;5033569;28;20205;-69
2022/07/16 09:03:14;;;;;;;0.30;0.30;;;17.30;99.90;;;;;;5051187;28;20193;-68
2022/07/16 09:05:41;;;;;;;0.40;0.35;;;17.30;99.90;;;;;;5051027;28;20204;-68
2022/07/16 09:08:08;;;;;;;0.30;0.30;;;17.60;99.90;;;;;;5033908;28;20217;-68
2022/07/16 09:10:38;;;;;;;0.30;0.30;;;17.60;99.90;;;;;;5033815;28;20233;-69
2022/07/16 09:13:05;;;;;;;0.30;0.30;;;17.80;99.90;;;;;;5033638;28;20208;-68
2022/07/16 09:15:34;;;;;;;0.30;0.30;;;17.60;99.90;;;;;;5033656;28;20197;-69
2022/07/16 09:18:24;;;;;;;0.30;0.30;;;17.90;99.90;;;;;;5048781;28;20716;-69
2022/07/16 09:21:01;;;;;;;0.30;0.30;;;18.40;99.90;;;;;;5033357;28;20190;-68
2022/07/16 09:23:35;;;;;;;0.20;0.20;;;18.80;99.90;;;;;;5035746;28;20190;-68
2022/07/16 09:26:09;;;;;;;0.40;0.40;;;18.90;99.90;;;;;;5035274;28;20252;-69
2022/07/16 09:28:48;;;;;;;0.20;0.20;;;19.20;99.90;;;;;;5017362;28;20268;-69
2022/07/16 09:31:39;;;;;;;0.20;0.20;;;19.40;99.90;;;;;;5035750;28;20190;-69
2022/07/16 09:34:13;;;;;;;0.35;0.35;;;19.50;99.90;;;;;;5035215;28;20308;-69
2022/07/16 09:36:41;;;;;;;0.25;0.25;;;19.40;99.90;;;;;;5035173;28;20189;-69
2022/07/16 09:39:08;;;;;;;0.25;0.25;;;19.60;99.90;;;;;;5016744;28;20260;-69
2022/07/16 09:41:45;;;;;;;0.20;0.20;;;19.50;99.90;;;;;;5034541;28;20327;-69
2022/07/16 09:44:15;;;;;;;0.20;0.20;;;19.40;99.90;;;;;;5034698;28;20213;-69
2022/07/16 09:47:06;;;;;;;0.20;0.20;;;18.90;99.90;;;;;;5034735;28;20248;-69
2022/07/16 09:49:34;;;;;;;0.20;0.20;;;18.70;99.90;;;;;;5034429;28;20225;-69
2022/07/16 09:52:00;;;;;;;0.30;0.30;;;19.10;99.90;;;;;;5034633;28;20204;-69
2022/07/16 09:54:33;;;;;;;0.30;0.30;;;18.80;99.90;;;;;;5016911;28;20199;-69
2022/07/16 09:57:08;;;;;;;0.22;0.22;;;18.70;99.90;;;;;;5034585;28;20194;-68
2022/07/16 09:59:35;;;;;;;0.20;0.20;;;18.90;99.90;;;;;;5016453;28;20217;-69
2022/07/16 10:02:04;;;;;;;0.20;0.20;;;19.40;99.90;;;;;;5016521;28;20226;-69
2022/07/16 10:04:31;;;;;;;0.20;0.20;;;19.50;99.90;;;;;;5016719;28;20198;-69
2022/07/16 10:06:57;;;;;;;0.20;0.20;;;19.70;99.90;;;;;;5028292;28;20194;-69
2022/07/16 10:09:25;;;;;;;0.40;0.40;;;20.30;99.90;;;;;;5037088;28;20235;-69
2022/07/16 10:11:52;;;;;;;0.20;0.20;;;20.90;99.90;;;;;;5036505;28;20697;-69
2022/07/16 10:14:19;;;;;;;0.20;0.20;;;20.90;99.90;;;;;;5032716;28;20304;-69
2022/07/16 10:16:48;;;;;;;0.20;0.20;;;20.50;99.90;;;;;;5034606;28;20561;-69
2022/07/16 10:19:15;;;;;;;0.22;0.22;;;20.00;99.90;;;;;;5034252;28;20196;-69
2022/07/16 10:22:01;;;;;;;0.20;0.20;;;19.40;99.90;;;;;;5016406;28;20620;-70
2022/07/16 10:24:47;;;;;;;0.20;0.20;;;18.90;99.90;;;;;;5034133;28;20226;-69
2022/07/16 10:27:35;;;;;;;0.45;0.45;;;18.20;99.90;;;;;;5016019;28;20590;-69
2022/07/16 10:30:09;;;;;;;0.20;0.20;;;17.90;99.90;;;;;;5033898;28;20229;-69
2022/07/16 10:32:59;;;;;;;0.20;0.20;;;18.10;99.90;;;;;;5033495;28;20196;-69
2022/07/16 10:35:28;;;;;;;0.20;0.20;;;18.70;99.90;;;;;;5034119;28;20229;-69
2022/07/16 10:38:08;;;;;;;0.20;0.20;;;18.90;99.90;;;;;;5034112;28;20696;-69
2022/07/16 10:40:37;;;;;;;0.47;0.30;;;19.40;99.90;;;;;;5045776;28;20190;-70
2022/07/16 10:43:19;;;;;;;0.20;0.20;;;19.80;99.90;;;;;;5053972;28;20205;-69
2022/07/16 10:45:49;;;;;;;0.30;0.30;;;19.90;99.90;;;;;;5054250;28;20588;-69
2022/07/16 10:48:15;;;;;;;0.30;0.30;;;20.40;99.90;;;;;;5035972;28;20575;-69
2022/07/16 10:51:17;;;;;;;0.20;0.20;;;21.20;99.90;;;;;;5054194;28;20198;-70
2022/07/16 10:53:57;;;;;;;0.20;0.20;;;21.80;99.90;;;;;;5053841;28;20197;-69
2022/07/16 10:56:35;;;;;;;0.38;0.38;;;21.40;99.90;;;;;;5053446;28;20189;-70
2022/07/16 10:59:02;;;;;;;0.20;0.20;;;20.60;99.20;;;;;;5035167;28;20198;-69
2022/07/16 11:01:29;;;;;;;0.52;0.50;;;19.70;99.90;;;;;;5052974;28;20206;-69
2022/07/16 11:03:55;;;;;;;0.30;0.30;;;19.20;99.90;;;;;;5053149;28;20248;-70
2022/07/16 11:06:22;;;;;;;0.20;0.20;;;19.30;99.90;;;;;;5034394;28;20209;-69
2022/07/16 11:08:54;;;;;;;0.20;0.20;;;19.40;99.90;;;;;;5052849;28;20761;-69
2022/07/16 11:11:20;;;;;;;0.20;0.20;;;20.00;99.90;;;;;;5042821;28;20205;-70
2022/07/16 11:13:47;;;;;;;0.20;0.20;;;19.90;99.90;;;;;;5035872;28;20201;-69
2022/07/16 11:16:14;;;;;;;0.20;0.20;;;19.60;99.90;;;;;;5035067;28;20190;-70
2022/07/16 11:18:40;;;;;;;0.32;0.32;;;19.50;99.90;;;;;;5053094;28;20688;-70
2022/07/16 11:21:07;;;;;;;0.30;0.30;;;19.10;99.90;;;;;;5052748;28;20558;-69
2022/07/16 11:23:55;;;;;;;0.30;0.30;;;18.60;99.90;;;;;;5052526;28;20208;-69
2022/07/16 11:26:23;;;;;;;0.30;0.30;;;18.90;99.90;;;;;;5070576;28;20280;-69
2022/07/16 11:28:51;;;;;;;0.20;0.20;;;19.60;99.90;;;;;;5072387;28;20213;-69
2022/07/16 11:31:26;;;;;;;0.20;0.20;;;20.20;99.50;;;;;;5072373;28;20193;-69
2022/07/16 11:33:56;;;;;;;0.20;0.20;;;20.40;97.80;;;;;;5072651;28;20200;-69
2022/07/16 11:36:29;;;;;;;0.20;0.20;;;20.80;98.20;;;;;;5063134;28;20236;-69
2022/07/16 11:39:05;;;;;;;0.20;0.20;;;20.90;97.10;;;;;;5052293;28;20189;-70
2022/07/16 11:41:32;;;;;;;0.20;0.20;;;21.20;98.60;;;;;;5052091;28;20193;-69
2022/07/16 11:43:58;;;;;;;0.32;0.32;;;21.30;97.40;;;;;;5051682;28;20193;-70
2022/07/16 11:46:26;;;;;;;0.20;0.20;;;21.50;96.70;;;;;;5052843;28;20192;-70
2022/07/16 11:48:53;;;;;;;0.20;0.20;;;21.10;96.10;;;;;;5051807;28;20213;-69
2022/07/16 11:51:19;;;;;;;0.30;0.30;;;21.00;96.30;;;;;;5052382;28;20198;-69
2022/07/16 11:53:55;;;;;;;0.20;0.20;;;21.10;95.90;;;;;;5051179;28;20197;-69
2022/07/16 11:56:32;;;;;;;0.20;0.20;;;21.00;94.30;;;;;;5052164;28;20205;-69
2022/07/16 11:58:58;;;;;;;0.20;0.20;;;21.40;97.20;;;;;;5052468;28;20272;-69
2022/07/16 12:01:24;;;;;;;0.20;0.20;;;20.90;94.50;;;;;;5052228;28;20532;-70
2022/07/16 12:03:56;;;;;;;0.20;0.20;;;20.40;96.50;;;;;;5050831;28;20209;-70
2022/07/16 12:06:22;;;;;;;0.20;0.20;;;21.00;95.60;;;;;;5061992;28;20197;-70
2022/07/16 12:08:56;;;;;;;0.20;0.20;;;21.30;96.30;;;;;;5070905;28;20209;-69
2022/07/16 12:11:37;;;;;;;0.70;0.30;;;21.20;96.30;;;;;;5071984;28;20201;-69
2022/07/16 12:14:04;;;;;;;0.28;0.28;;;20.50;96.10;;;;;;5071286;28;20566;-69
2022/07/16 12:16:31;;;;;;;0.20;0.20;;;20.40;97.70;;;;;;5071727;28;20184;-69
2022/07/16 12:19:06;;;;;;;0.20;0.20;;;20.60;97.30;;;;;;5072837;28;20211;-68
2022/07/16 12:21:40;;;;;;;0.40;0.40;;;21.00;97.50;;;;;;5071734;28;20271;-69
2022/07/16 12:24:09;;;;;;;0.75;0.40;;;21.40;96.70;;;;;;5070960;28;20655;-69
2022/07/16 12:26:36;;;;;;;0.22;0.22;;;20.60;94.00;;;;;;5051812;28;20649;-69
2022/07/16 12:29:04;;;;;;;0.20;0.20;;;19.90;96.20;;;;;;5052211;28;20323;-69
2022/07/16 12:31:31;;;;;;;0.20;0.20;;;19.60;97.40;;;;;;5034019;28;20197;-69
2022/07/16 12:33:58;;;;;;;0.82;0.60;;;19.80;98.50;;;;;;5033676;28;20200;-69
2022/07/16 12:36:37;;;;;;;0.30;0.30;;;20.80;97.40;;;;;;5051991;28;20208;-69
2022/07/16 12:39:08;;;;;;;0.20;0.20;;;20.90;95.50;;;;;;5051887;28;20182;-69
2022/07/16 12:41:39;;;;;;;0.20;0.20;;;20.70;96.10;;;;;;5051707;28;20189;-69
2022/07/16 12:44:05;;;;;;;1.20;0.50;;;20.60;96.90;;;;;;5052056;28;20189;-70
2022/07/16 12:46:32;;;;;;;0.40;0.40;;;20.20;94.80;;;;;;5051979;28;20194;-69
2022/07/16 12:49:03;;;;;;;0.20;0.20;;;19.90;98.00;;;;;;5051563;28;20575;-68
2022/07/16 12:51:33;;;;;;;0.17;0.17;;;19.80;97.70;;;;;;5051576;28;20699;-69
2022/07/16 12:54:01;;;;;;;0.20;0.20;;;20.00;97.00;;;;;;5051912;28;20268;-70